createdAt,value
2017-11-16T00:00:04.939Z,1018.57
2017-11-16T00:00:31.072Z,1018.56
2017-11-16T00:00:57.257Z,1018.58
2017-11-16T00:01:23.402Z,1018.51
2017-11-16T00:01:49.542Z,1018.53
2017-11-16T00:02:15.685Z,1018.54
2017-11-16T00:02:41.855Z,1018.54
2017-11-16T00:03:08.002Z,1018.52
2017-11-16T00:03:34.153Z,1018.5
2017-11-16T00:04:00.300Z,1018.51
2017-11-16T00:04:26.451Z,1018.53
2017-11-16T00:04:52.592Z,1018.53
2017-11-16T00:05:18.739Z,1018.52
2017-11-16T00:05:44.887Z,1018.51
2017-11-16T00:06:11.030Z,1018.54
2017-11-16T00:06:37.174Z,1018.51
2017-11-16T00:07:03.312Z,1018.53
2017-11-16T00:07:29.459Z,1018.53
2017-11-16T00:07:55.617Z,1018.53
2017-11-16T00:08:21.761Z,1018.51
2017-11-16T00:08:47.903Z,1018.53
2017-11-16T00:09:14.055Z,1018.52
2017-11-16T00:09:40.201Z,1018.53
2017-11-16T00:10:06.350Z,1018.49
2017-11-16T00:10:32.496Z,1018.54
2017-11-16T00:10:58.638Z,1018.53
2017-11-16T00:11:24.786Z,1018.51
2017-11-16T00:11:50.933Z,1018.5
2017-11-16T00:12:17.077Z,1018.52
2017-11-16T00:12:43.242Z,1018.48
2017-11-16T00:13:09.395Z,1018.48
2017-11-16T00:13:35.541Z,1018.46
2017-11-16T00:14:01.683Z,1018.49
2017-11-16T00:14:27.854Z,1018.49
2017-11-16T00:14:54.028Z,1018.47
2017-11-16T00:15:20.176Z,1018.44
2017-11-16T00:15:46.317Z,1018.43
2017-11-16T00:16:12.460Z,1018.42
2017-11-16T00:16:38.609Z,1018.39
2017-11-16T00:17:04.750Z,1018.41
2017-11-16T00:17:30.906Z,1018.42
2017-11-16T00:17:57.051Z,1018.39
2017-11-16T00:18:23.220Z,1018.41
2017-11-16T00:18:49.386Z,1018.43
2017-11-16T00:19:15.528Z,1018.41
2017-11-16T00:19:41.678Z,1018.43
2017-11-16T00:20:07.826Z,1018.37
2017-11-16T00:20:33.968Z,1018.37
2017-11-16T00:21:00.113Z,1018.39
2017-11-16T00:21:26.256Z,1018.37
2017-11-16T00:21:52.397Z,1018.38
2017-11-16T00:22:18.542Z,1018.36
2017-11-16T00:22:44.692Z,1018.35
2017-11-16T00:23:10.833Z,1018.34
2017-11-16T00:23:36.982Z,1018.37
2017-11-16T00:24:03.128Z,1018.37
2017-11-16T00:24:29.278Z,1018.36
2017-11-16T00:24:55.423Z,1018.36
2017-11-16T00:25:21.589Z,1018.39
2017-11-16T00:25:47.733Z,1018.36
2017-11-16T00:26:13.873Z,1018.36
2017-11-16T00:26:40.036Z,1018.4
2017-11-16T00:27:06.206Z,1018.39
2017-11-16T00:27:32.353Z,1018.35
2017-11-16T00:27:58.498Z,1018.39
2017-11-16T00:28:24.645Z,1018.43
2017-11-16T00:28:50.795Z,1018.32
2017-11-16T00:29:16.944Z,1018.41
2017-11-16T00:29:43.087Z,1018.36
2017-11-16T00:30:09.232Z,1018.4
2017-11-16T00:30:35.380Z,1018.38
2017-11-16T00:31:01.524Z,1018.35
2017-11-16T00:31:27.667Z,1018.32
2017-11-16T00:31:53.846Z,1018.34
2017-11-16T00:32:19.987Z,1018.35
2017-11-16T00:32:46.134Z,1018.37
2017-11-16T00:33:12.298Z,1018.32
2017-11-16T00:33:38.437Z,1018.35
2017-11-16T00:34:04.592Z,1018.3
2017-11-16T00:34:30.737Z,1018.31
2017-11-16T00:34:56.878Z,1018.36
2017-11-16T00:35:23.025Z,1018.37
2017-11-16T00:35:49.170Z,1018.38
2017-11-16T00:36:15.345Z,1018.35
2017-11-16T00:36:41.523Z,1018.32
2017-11-16T00:37:07.663Z,1018.37
2017-11-16T00:37:33.813Z,1018.38
2017-11-16T00:37:59.962Z,1018.34
2017-11-16T00:38:26.101Z,1018.36
2017-11-16T00:38:52.254Z,1018.34
2017-11-16T00:39:18.394Z,1018.37
2017-11-16T00:39:44.542Z,1018.36
2017-11-16T00:40:10.684Z,1018.37
2017-11-16T00:40:36.828Z,1018.37
2017-11-16T00:41:02.977Z,1018.32
2017-11-16T00:41:29.121Z,1018.35
2017-11-16T00:41:55.267Z,1018.33
2017-11-16T00:42:21.407Z,1018.35
2017-11-16T00:42:47.557Z,1018.35
2017-11-16T00:43:13.700Z,1018.33
2017-11-16T00:43:39.849Z,1018.33
2017-11-16T00:44:05.996Z,1018.38
2017-11-16T00:44:32.138Z,1018.34
2017-11-16T00:44:58.287Z,1018.37
2017-11-16T00:45:24.435Z,1018.34
2017-11-16T00:45:50.583Z,1018.31
2017-11-16T00:46:16.729Z,1018.35
2017-11-16T00:46:42.871Z,1018.34
2017-11-16T00:47:09.024Z,1018.34
2017-11-16T00:47:35.162Z,1018.37
2017-11-16T00:48:01.305Z,1018.34
2017-11-16T00:48:27.473Z,1018.34
2017-11-16T00:48:53.622Z,1018.31
2017-11-16T00:49:19.764Z,1018.29
2017-11-16T00:49:45.915Z,1018.32
2017-11-16T00:50:12.093Z,1018.33
2017-11-16T00:50:38.233Z,1018.31
2017-11-16T00:51:04.415Z,1018.32
2017-11-16T00:51:30.558Z,1018.35
2017-11-16T00:51:56.703Z,1018.34
2017-11-16T00:52:22.869Z,1018.32
2017-11-16T00:52:49.078Z,1018.29
2017-11-16T00:53:15.326Z,1018.31
2017-11-16T00:53:41.566Z,1018.3
2017-11-16T00:54:07.775Z,1018.33
2017-11-16T00:54:34.126Z,1018.35
2017-11-16T00:55:00.366Z,1018.31
2017-11-16T00:55:26.508Z,1018.37
2017-11-16T00:55:52.663Z,1018.31
2017-11-16T00:56:18.834Z,1018.31
2017-11-16T00:56:44.976Z,1018.33
2017-11-16T00:57:11.118Z,1018.32
2017-11-16T00:57:37.271Z,1018.34
2017-11-16T00:58:03.436Z,1018.36
2017-11-16T00:58:29.586Z,1018.35
2017-11-16T00:58:55.727Z,1018.32
2017-11-16T00:59:21.876Z,1018.3
2017-11-16T00:59:48.017Z,1018.34
2017-11-16T01:00:14.168Z,1018.28
2017-11-16T01:00:40.313Z,1018.27
2017-11-16T01:01:06.456Z,1018.29
2017-11-16T01:01:32.604Z,1018.26
2017-11-16T01:01:58.744Z,1018.25
2017-11-16T01:02:24.898Z,1018.25
2017-11-16T01:02:51.046Z,1018.27
2017-11-16T01:03:17.206Z,1018.24
2017-11-16T01:03:43.353Z,1018.23
2017-11-16T01:04:09.495Z,1018.24
2017-11-16T01:04:35.642Z,1018.26
2017-11-16T01:05:01.791Z,1018.21
2017-11-16T01:05:27.933Z,1018.24
2017-11-16T01:05:54.086Z,1018.22
2017-11-16T01:06:20.228Z,1018.19
2017-11-16T01:06:46.372Z,1018.21
2017-11-16T01:07:12.525Z,1018.23
2017-11-16T01:07:38.692Z,1018.21
2017-11-16T01:08:04.835Z,1018.21
2017-11-16T01:08:30.981Z,1018.23
2017-11-16T01:08:57.133Z,1018.21
2017-11-16T01:09:23.276Z,1018.23
2017-11-16T01:09:49.432Z,1018.24
2017-11-16T01:10:15.604Z,1018.23
2017-11-16T01:10:41.755Z,1018.25
2017-11-16T01:11:07.905Z,1018.25
2017-11-16T01:11:34.040Z,1018.23
2017-11-16T01:12:00.158Z,1018.26
2017-11-16T01:12:26.283Z,1018.27
2017-11-16T01:12:52.412Z,1018.25
2017-11-16T01:13:18.529Z,1018.24
2017-11-16T01:13:44.646Z,1018.22
2017-11-16T01:14:10.771Z,1018.22
2017-11-16T01:14:36.890Z,1018.22
2017-11-16T01:15:03.018Z,1018.21
2017-11-16T01:15:29.159Z,1018.21
2017-11-16T01:15:55.299Z,1018.21
2017-11-16T01:16:21.411Z,1018.23
2017-11-16T01:16:47.536Z,1018.19
2017-11-16T01:17:13.663Z,1018.22
2017-11-16T01:17:39.780Z,1018.18
2017-11-16T01:18:05.906Z,1018.19
2017-11-16T01:18:32.022Z,1018.21
2017-11-16T01:18:58.149Z,1018.22
2017-11-16T01:19:24.267Z,1018.18
2017-11-16T01:19:50.387Z,1018.16
2017-11-16T01:20:16.513Z,1018.21
2017-11-16T01:20:42.632Z,1018.2
2017-11-16T01:21:08.757Z,1018.18
2017-11-16T01:21:34.874Z,1018.19
2017-11-16T01:22:01.003Z,1018.17
2017-11-16T01:22:27.129Z,1018.19
2017-11-16T01:22:53.249Z,1018.17
2017-11-16T01:23:19.367Z,1018.15
2017-11-16T01:23:45.480Z,1018.17
2017-11-16T01:24:11.609Z,1018.18
2017-11-16T01:24:37.725Z,1018.16
2017-11-16T01:25:03.859Z,1018.17
2017-11-16T01:25:29.970Z,1018.16
2017-11-16T01:25:56.089Z,1018.15
2017-11-16T01:26:22.230Z,1018.17
2017-11-16T01:26:48.350Z,1018.17
2017-11-16T01:27:14.477Z,1018.14
2017-11-16T01:27:40.597Z,1018.18
2017-11-16T01:28:06.726Z,1018.18
2017-11-16T01:28:32.851Z,1018.14
2017-11-16T01:28:58.964Z,1018.16
2017-11-16T01:29:25.085Z,1018.15
2017-11-16T01:29:51.207Z,1018.17
2017-11-16T01:30:17.324Z,1018.13
2017-11-16T01:30:43.455Z,1018.16
2017-11-16T01:31:09.576Z,1018.14
2017-11-16T01:31:35.693Z,1018.13
2017-11-16T01:32:01.819Z,1018.12
2017-11-16T01:32:27.937Z,1018.11
2017-11-16T01:32:54.059Z,1018.07
2017-11-16T01:33:20.185Z,1018.09
2017-11-16T01:33:46.304Z,1018.06
2017-11-16T01:34:12.433Z,1018.06
2017-11-16T01:34:38.556Z,1018.07
2017-11-16T01:35:04.673Z,1018.1
2017-11-16T01:35:30.792Z,1018.06
2017-11-16T01:35:56.915Z,1018.08
2017-11-16T01:36:23.036Z,1018.11
2017-11-16T01:36:49.160Z,1018.05
2017-11-16T01:37:15.280Z,1018.07
2017-11-16T01:37:41.408Z,1018.1
2017-11-16T01:38:07.547Z,1018.03
2017-11-16T01:38:33.695Z,1018.07
2017-11-16T01:38:59.841Z,1018.06
2017-11-16T01:39:25.963Z,1018.05
2017-11-16T01:39:52.084Z,1018.07
2017-11-16T01:40:18.204Z,1018.05
2017-11-16T01:40:44.333Z,1018.05
2017-11-16T01:41:10.454Z,1018.05
2017-11-16T01:41:36.574Z,1018.07
2017-11-16T01:42:02.698Z,1018.1
2017-11-16T01:42:28.816Z,1018.05
2017-11-16T01:42:54.934Z,1018.04
2017-11-16T01:43:21.063Z,1018.07
2017-11-16T01:43:47.176Z,1018.08
2017-11-16T01:44:13.298Z,1018.04
2017-11-16T01:44:39.425Z,1018.06
2017-11-16T01:45:05.548Z,1018.07
2017-11-16T01:45:31.666Z,1018.07
2017-11-16T01:45:57.815Z,1018.05
2017-11-16T01:46:23.933Z,1018.04
2017-11-16T01:46:50.085Z,1018.05
2017-11-16T01:47:16.223Z,1018.03
2017-11-16T01:47:42.344Z,1018.06
2017-11-16T01:48:08.460Z,1018.04
2017-11-16T01:48:34.580Z,1018.03
2017-11-16T01:49:00.708Z,1018.03
2017-11-16T01:49:26.828Z,1018.04
2017-11-16T01:49:52.951Z,1018
2017-11-16T01:50:19.101Z,1018.01
2017-11-16T01:50:45.223Z,1018.02
2017-11-16T01:51:11.356Z,1018.01
2017-11-16T01:51:37.506Z,1018
2017-11-16T01:52:03.623Z,1018.02
2017-11-16T01:52:29.748Z,1018.01
2017-11-16T01:52:55.884Z,1018.01
2017-11-16T01:53:22.022Z,1018
2017-11-16T01:53:48.119Z,1018.02
2017-11-16T01:54:14.240Z,1018.02
2017-11-16T01:54:40.356Z,1017.99
2017-11-16T01:55:06.483Z,1018.01
2017-11-16T01:55:32.643Z,1018
2017-11-16T01:55:58.770Z,1018.04
2017-11-16T01:56:24.894Z,1018
2017-11-16T01:56:51.034Z,1017.99
2017-11-16T01:57:17.151Z,1018
2017-11-16T01:57:43.280Z,1018.02
2017-11-16T01:58:09.405Z,1017.97
2017-11-16T01:58:35.541Z,1018
2017-11-16T01:59:01.669Z,1018
2017-11-16T01:59:27.786Z,1017.94
2017-11-16T01:59:53.905Z,1017.94
2017-11-16T02:00:20.038Z,1017.94
2017-11-16T02:00:46.149Z,1017.96
2017-11-16T02:01:12.277Z,1017.95
2017-11-16T02:01:38.402Z,1017.99
2017-11-16T02:02:04.518Z,1017.93
2017-11-16T02:02:30.648Z,1017.96
2017-11-16T02:02:56.764Z,1017.94
2017-11-16T02:03:22.896Z,1017.93
2017-11-16T02:03:49.007Z,1017.94
2017-11-16T02:04:15.132Z,1017.95
2017-11-16T02:04:41.260Z,1017.92
2017-11-16T02:05:07.373Z,1017.93
2017-11-16T02:05:33.503Z,1017.94
2017-11-16T02:05:59.647Z,1017.98
2017-11-16T02:06:25.773Z,1017.95
2017-11-16T02:06:51.896Z,1017.95
2017-11-16T02:07:18.022Z,1017.96
2017-11-16T02:07:44.129Z,1017.93
2017-11-16T02:08:10.260Z,1017.96
2017-11-16T02:08:36.385Z,1017.97
2017-11-16T02:09:02.551Z,1017.96
2017-11-16T02:09:28.628Z,1017.95
2017-11-16T02:09:54.743Z,1017.94
2017-11-16T02:10:20.863Z,1017.92
2017-11-16T02:10:46.986Z,1017.96
2017-11-16T02:11:13.109Z,1017.95
2017-11-16T02:11:39.264Z,1017.92
2017-11-16T02:12:05.384Z,1017.89
2017-11-16T02:12:31.508Z,1017.88
2017-11-16T02:12:57.624Z,1017.91
2017-11-16T02:13:23.745Z,1017.9
2017-11-16T02:13:49.866Z,1017.91
2017-11-16T02:14:15.992Z,1017.91
2017-11-16T02:14:42.110Z,1017.9
2017-11-16T02:15:08.234Z,1017.87
2017-11-16T02:15:34.362Z,1017.89
2017-11-16T02:16:00.473Z,1017.87
2017-11-16T02:16:26.594Z,1017.84
2017-11-16T02:16:52.720Z,1017.86
2017-11-16T02:17:18.845Z,1017.85
2017-11-16T02:17:44.967Z,1017.89
2017-11-16T02:18:11.086Z,1017.84
2017-11-16T02:18:37.212Z,1017.86
2017-11-16T02:19:03.330Z,1017.87
2017-11-16T02:19:29.448Z,1017.87
2017-11-16T02:19:55.568Z,1017.85
2017-11-16T02:20:21.685Z,1017.85
2017-11-16T02:20:47.811Z,1017.85
2017-11-16T02:21:13.954Z,1017.83
2017-11-16T02:21:40.071Z,1017.83
2017-11-16T02:22:06.197Z,1017.81
2017-11-16T02:22:32.319Z,1017.82
2017-11-16T02:22:58.440Z,1017.81
2017-11-16T02:23:24.557Z,1017.85
2017-11-16T02:23:50.683Z,1017.86
2017-11-16T02:24:16.813Z,1017.82
2017-11-16T02:24:42.939Z,1017.81
2017-11-16T02:25:09.060Z,1017.76
2017-11-16T02:25:35.176Z,1017.78
2017-11-16T02:26:01.295Z,1017.78
2017-11-16T02:26:27.423Z,1017.83
2017-11-16T02:26:53.539Z,1017.8
2017-11-16T02:27:19.669Z,1017.81
2017-11-16T02:27:45.785Z,1017.78
2017-11-16T02:28:11.909Z,1017.82
2017-11-16T02:28:38.034Z,1017.81
2017-11-16T02:29:04.152Z,1017.78
2017-11-16T02:29:30.273Z,1017.79
2017-11-16T02:29:56.402Z,1017.81
2017-11-16T02:30:22.524Z,1017.82
2017-11-16T02:30:48.649Z,1017.79
2017-11-16T02:31:14.764Z,1017.78
2017-11-16T02:31:40.887Z,1017.8
2017-11-16T02:32:07.005Z,1017.81
2017-11-16T02:32:33.153Z,1017.8
2017-11-16T02:32:59.277Z,1017.8
2017-11-16T02:33:25.400Z,1017.81
2017-11-16T02:33:51.524Z,1017.82
2017-11-16T02:34:17.645Z,1017.81
2017-11-16T02:34:43.765Z,1017.78
2017-11-16T02:35:09.888Z,1017.8
2017-11-16T02:35:36.014Z,1017.78
2017-11-16T02:36:02.131Z,1017.8
2017-11-16T02:36:28.251Z,1017.82
2017-11-16T02:36:54.406Z,1017.8
2017-11-16T02:37:20.524Z,1017.8
2017-11-16T02:37:46.645Z,1017.81
2017-11-16T02:38:12.772Z,1017.78
2017-11-16T02:38:38.896Z,1017.76
2017-11-16T02:39:05.034Z,1017.78
2017-11-16T02:39:31.165Z,1017.79
2017-11-16T02:39:57.281Z,1017.76
2017-11-16T02:40:23.426Z,1017.74
2017-11-16T02:40:49.522Z,1017.74
2017-11-16T02:41:15.647Z,1017.76
2017-11-16T02:41:41.787Z,1017.73
2017-11-16T02:42:07.931Z,1017.73
2017-11-16T02:42:34.090Z,1017.72
2017-11-16T02:43:00.240Z,1017.74
2017-11-16T02:43:26.363Z,1017.68
2017-11-16T02:43:52.479Z,1017.73
2017-11-16T02:44:18.601Z,1017.68
2017-11-16T02:44:44.717Z,1017.72
2017-11-16T02:45:10.850Z,1017.7
2017-11-16T02:45:36.967Z,1017.69
2017-11-16T02:46:03.083Z,1017.73
2017-11-16T02:46:29.202Z,1017.72
2017-11-16T02:46:55.329Z,1017.74
2017-11-16T02:47:21.445Z,1017.68
2017-11-16T02:47:47.573Z,1017.65
2017-11-16T02:48:13.691Z,1017.68
2017-11-16T02:48:39.813Z,1017.72
2017-11-16T02:49:05.958Z,1017.68
2017-11-16T02:49:32.087Z,1017.72
2017-11-16T02:49:58.225Z,1017.69
2017-11-16T02:50:24.345Z,1017.69
2017-11-16T02:50:50.471Z,1017.67
2017-11-16T02:51:16.586Z,1017.64
2017-11-16T02:51:42.712Z,1017.66
2017-11-16T02:52:08.829Z,1017.63
2017-11-16T02:52:34.955Z,1017.67
2017-11-16T02:53:01.078Z,1017.69
2017-11-16T02:53:27.195Z,1017.72
2017-11-16T02:53:53.314Z,1017.71
2017-11-16T02:54:19.460Z,1017.67
2017-11-16T02:54:45.579Z,1017.7
2017-11-16T02:55:11.704Z,1017.68
2017-11-16T02:55:37.850Z,1017.7
2017-11-16T02:56:03.974Z,1017.65
2017-11-16T02:56:30.096Z,1017.67
2017-11-16T02:56:56.239Z,1017.67
2017-11-16T02:57:22.364Z,1017.68
2017-11-16T02:57:48.501Z,1017.67
2017-11-16T02:58:14.629Z,1017.69
2017-11-16T02:58:40.745Z,1017.67
2017-11-16T02:59:06.888Z,1017.7
2017-11-16T02:59:33.015Z,1017.64
2017-11-16T02:59:59.165Z,1017.65
2017-11-16T03:00:25.259Z,1017.66
2017-11-16T03:00:51.381Z,1017.67
2017-11-16T03:01:17.496Z,1017.66
2017-11-16T03:01:43.616Z,1017.66
2017-11-16T03:02:09.740Z,1017.62
2017-11-16T03:02:35.870Z,1017.61
2017-11-16T03:03:01.989Z,1017.64
2017-11-16T03:03:28.119Z,1017.63
2017-11-16T03:03:54.232Z,1017.64
2017-11-16T03:04:20.356Z,1017.62
2017-11-16T03:04:46.475Z,1017.64
2017-11-16T03:05:12.593Z,1017.64
2017-11-16T03:05:38.711Z,1017.65
2017-11-16T03:06:04.838Z,1017.64
2017-11-16T03:06:30.956Z,1017.67
2017-11-16T03:06:57.081Z,1017.65
2017-11-16T03:07:23.201Z,1017.68
2017-11-16T03:07:49.325Z,1017.67
2017-11-16T03:08:15.444Z,1017.65
2017-11-16T03:08:41.571Z,1017.65
2017-11-16T03:09:07.690Z,1017.64
2017-11-16T03:09:33.823Z,1017.65
2017-11-16T03:09:59.948Z,1017.69
2017-11-16T03:10:26.084Z,1017.65
2017-11-16T03:10:52.207Z,1017.67
2017-11-16T03:11:18.327Z,1017.62
2017-11-16T03:11:44.455Z,1017.7
2017-11-16T03:12:10.573Z,1017.71
2017-11-16T03:12:36.702Z,1017.65
2017-11-16T03:13:02.823Z,1017.72
2017-11-16T03:13:28.953Z,1017.68
2017-11-16T03:13:55.064Z,1017.73
2017-11-16T03:14:21.212Z,1017.68
2017-11-16T03:14:47.332Z,1017.73
2017-11-16T03:15:13.458Z,1017.73
2017-11-16T03:15:39.575Z,1017.7
2017-11-16T03:16:05.702Z,1017.72
2017-11-16T03:16:31.820Z,1017.69
2017-11-16T03:16:57.950Z,1017.74
2017-11-16T03:17:24.079Z,1017.69
2017-11-16T03:17:50.192Z,1017.69
2017-11-16T03:18:16.312Z,1017.72
2017-11-16T03:18:42.436Z,1017.71
2017-11-16T03:19:08.561Z,1017.68
2017-11-16T03:19:34.698Z,1017.72
2017-11-16T03:20:00.823Z,1017.69
2017-11-16T03:20:26.940Z,1017.7
2017-11-16T03:20:53.067Z,1017.68
2017-11-16T03:21:19.188Z,1017.7
2017-11-16T03:21:45.305Z,1017.66
2017-11-16T03:22:11.431Z,1017.68
2017-11-16T03:22:37.554Z,1017.69
2017-11-16T03:23:03.669Z,1017.67
2017-11-16T03:23:29.800Z,1017.63
2017-11-16T03:23:55.927Z,1017.7
2017-11-16T03:24:22.044Z,1017.67
2017-11-16T03:24:48.161Z,1017.64
2017-11-16T03:25:14.291Z,1017.65
2017-11-16T03:25:40.412Z,1017.67
2017-11-16T03:26:06.529Z,1017.66
2017-11-16T03:26:32.650Z,1017.71
2017-11-16T03:26:58.776Z,1017.7
2017-11-16T03:27:24.893Z,1017.73
2017-11-16T03:27:51.024Z,1017.73
2017-11-16T03:28:17.140Z,1017.72
2017-11-16T03:28:43.270Z,1017.73
2017-11-16T03:29:09.399Z,1017.75
2017-11-16T03:29:35.522Z,1017.74
2017-11-16T03:30:01.650Z,1017.75
2017-11-16T03:30:27.773Z,1017.76
2017-11-16T03:30:53.893Z,1017.75
2017-11-16T03:31:20.016Z,1017.77
2017-11-16T03:31:46.135Z,1017.78
2017-11-16T03:32:12.254Z,1017.74
2017-11-16T03:32:38.398Z,1017.73
2017-11-16T03:33:04.521Z,1017.75
2017-11-16T03:33:30.638Z,1017.76
2017-11-16T03:33:56.765Z,1017.74
2017-11-16T03:34:22.884Z,1017.78
2017-11-16T03:34:49.022Z,1017.7
2017-11-16T03:35:15.129Z,1017.76
2017-11-16T03:35:41.244Z,1017.73
2017-11-16T03:36:07.374Z,1017.73
2017-11-16T03:36:33.498Z,1017.73
2017-11-16T03:36:59.616Z,1017.72
2017-11-16T03:37:25.736Z,1017.73
2017-11-16T03:37:51.861Z,1017.71
2017-11-16T03:38:17.984Z,1017.69
2017-11-16T03:38:44.102Z,1017.72
2017-11-16T03:39:10.228Z,1017.65
2017-11-16T03:39:36.348Z,1017.67
2017-11-16T03:40:02.468Z,1017.65
2017-11-16T03:40:28.612Z,1017.63
2017-11-16T03:40:54.734Z,1017.62
2017-11-16T03:41:20.862Z,1017.6
2017-11-16T03:41:47.005Z,1017.6
2017-11-16T03:42:13.123Z,1017.64
2017-11-16T03:42:39.271Z,1017.63
2017-11-16T03:43:05.408Z,1017.65
2017-11-16T03:43:31.529Z,1017.62
2017-11-16T03:43:57.656Z,1017.57
2017-11-16T03:44:23.776Z,1017.6
2017-11-16T03:44:49.902Z,1017.58
2017-11-16T03:45:16.027Z,1017.59
2017-11-16T03:45:42.140Z,1017.57
2017-11-16T03:46:08.263Z,1017.6
2017-11-16T03:46:34.380Z,1017.59
2017-11-16T03:47:00.508Z,1017.54
2017-11-16T03:47:26.655Z,1017.57
2017-11-16T03:47:52.797Z,1017.58
2017-11-16T03:48:18.947Z,1017.55
2017-11-16T03:48:45.108Z,1017.58
2017-11-16T03:49:11.225Z,1017.53
2017-11-16T03:49:37.365Z,1017.52
2017-11-16T03:50:03.500Z,1017.53
2017-11-16T03:50:29.620Z,1017.55
2017-11-16T03:50:55.738Z,1017.54
2017-11-16T03:51:21.876Z,1017.54
2017-11-16T03:51:48.001Z,1017.54
2017-11-16T03:52:14.138Z,1017.56
2017-11-16T03:52:40.270Z,1017.57
2017-11-16T03:53:06.407Z,1017.55
2017-11-16T03:53:32.535Z,1017.66
2017-11-16T03:53:58.654Z,1017.61
2017-11-16T03:54:24.776Z,1017.61
2017-11-16T03:54:50.903Z,1017.57
2017-11-16T03:55:17.022Z,1017.61
2017-11-16T03:55:43.144Z,1017.57
2017-11-16T03:56:09.281Z,1017.55
2017-11-16T03:56:35.401Z,1017.56
2017-11-16T03:57:01.527Z,1017.58
2017-11-16T03:57:27.644Z,1017.59
2017-11-16T03:57:53.770Z,1017.59
2017-11-16T03:58:19.896Z,1017.59
2017-11-16T03:58:46.036Z,1017.55
2017-11-16T03:59:12.180Z,1017.54
2017-11-16T03:59:38.297Z,1017.55
2017-11-16T04:00:04.418Z,1017.57
2017-11-16T04:00:30.544Z,1017.54
2017-11-16T04:00:56.670Z,1017.57
2017-11-16T04:01:22.786Z,1017.61
2017-11-16T04:01:48.905Z,1017.59
2017-11-16T04:02:15.031Z,1017.58
2017-11-16T04:02:41.168Z,1017.57
2017-11-16T04:03:07.293Z,1017.59
2017-11-16T04:03:33.418Z,1017.56
2017-11-16T04:03:59.532Z,1017.54
2017-11-16T04:04:25.664Z,1017.57
2017-11-16T04:04:51.778Z,1017.54
2017-11-16T04:05:17.895Z,1017.56
2017-11-16T04:05:44.046Z,1017.57
2017-11-16T04:06:10.165Z,1017.57
2017-11-16T04:06:36.295Z,1017.6
2017-11-16T04:07:02.412Z,1017.6
2017-11-16T04:07:28.538Z,1017.55
2017-11-16T04:07:54.654Z,1017.58
2017-11-16T04:08:20.778Z,1017.58
2017-11-16T04:08:46.902Z,1017.56
2017-11-16T04:09:13.030Z,1017.55
2017-11-16T04:09:39.149Z,1017.56
2017-11-16T04:10:05.268Z,1017.55
2017-11-16T04:10:31.387Z,1017.53
2017-11-16T04:10:57.510Z,1017.49
2017-11-16T04:11:23.630Z,1017.54
2017-11-16T04:11:49.746Z,1017.52
2017-11-16T04:12:15.883Z,1017.53
2017-11-16T04:12:42.000Z,1017.5
2017-11-16T04:13:08.122Z,1017.49
2017-11-16T04:13:34.238Z,1017.49
2017-11-16T04:14:00.370Z,1017.51
2017-11-16T04:14:26.488Z,1017.49
2017-11-16T04:14:52.630Z,1017.49
2017-11-16T04:15:18.761Z,1017.4
2017-11-16T04:15:44.939Z,1017.48
2017-11-16T04:16:11.059Z,1017.5
2017-11-16T04:16:37.183Z,1017.41
2017-11-16T04:17:03.299Z,1017.46
2017-11-16T04:17:29.427Z,1017.43
2017-11-16T04:17:55.543Z,1017.44
2017-11-16T04:18:21.670Z,1017.44
2017-11-16T04:18:47.788Z,1017.46
2017-11-16T04:19:13.910Z,1017.42
2017-11-16T04:19:40.038Z,1017.39
2017-11-16T04:20:06.160Z,1017.39
2017-11-16T04:20:32.276Z,1017.41
2017-11-16T04:20:58.400Z,1017.39
2017-11-16T04:21:24.522Z,1017.4
2017-11-16T04:21:50.639Z,1017.38
2017-11-16T04:22:16.768Z,1017.37
2017-11-16T04:22:42.906Z,1017.39
2017-11-16T04:23:09.046Z,1017.34
2017-11-16T04:23:35.195Z,1017.39
2017-11-16T04:24:01.313Z,1017.34
2017-11-16T04:24:27.432Z,1017.34
2017-11-16T04:24:53.559Z,1017.35
2017-11-16T04:25:19.677Z,1017.33
2017-11-16T04:25:45.824Z,1017.33
2017-11-16T04:26:11.942Z,1017.33
2017-11-16T04:26:38.070Z,1017.31
2017-11-16T04:27:04.218Z,1017.3
2017-11-16T04:27:30.338Z,1017.32
2017-11-16T04:27:56.454Z,1017.32
2017-11-16T04:28:22.590Z,1017.33
2017-11-16T04:28:48.706Z,1017.29
2017-11-16T04:29:14.837Z,1017.28
2017-11-16T04:29:40.982Z,1017.29
2017-11-16T04:30:07.098Z,1017.29
2017-11-16T04:30:33.223Z,1017.29
2017-11-16T04:30:59.345Z,1017.29
2017-11-16T04:31:25.473Z,1017.29
2017-11-16T04:31:51.590Z,1017.3
2017-11-16T04:32:17.715Z,1017.28
2017-11-16T04:32:43.838Z,1017.33
2017-11-16T04:33:09.956Z,1017.33
2017-11-16T04:33:36.090Z,1017.34
2017-11-16T04:34:02.203Z,1017.33
2017-11-16T04:34:28.321Z,1017.31
2017-11-16T04:34:54.440Z,1017.3
2017-11-16T04:35:20.568Z,1017.24
2017-11-16T04:35:46.687Z,1017.31
2017-11-16T04:36:12.803Z,1017.29
2017-11-16T04:36:38.933Z,1017.29
2017-11-16T04:37:05.055Z,1017.28
2017-11-16T04:37:31.194Z,1017.35
2017-11-16T04:37:57.323Z,1017.3
2017-11-16T04:38:23.438Z,1017.33
2017-11-16T04:38:49.581Z,1017.29
2017-11-16T04:39:15.690Z,1017.36
2017-11-16T04:39:41.806Z,1017.32
2017-11-16T04:40:07.933Z,1017.34
2017-11-16T04:40:34.057Z,1017.33
2017-11-16T04:41:00.172Z,1017.33
2017-11-16T04:41:26.296Z,1017.31
2017-11-16T04:41:52.423Z,1017.33
2017-11-16T04:42:18.541Z,1017.31
2017-11-16T04:42:44.662Z,1017.28
2017-11-16T04:43:10.799Z,1017.24
2017-11-16T04:43:36.911Z,1017.24
2017-11-16T04:44:03.032Z,1017.26
2017-11-16T04:44:29.186Z,1017.29
2017-11-16T04:44:55.299Z,1017.22
2017-11-16T04:45:21.423Z,1017.27
2017-11-16T04:45:47.544Z,1017.26
2017-11-16T04:46:13.660Z,1017.25
2017-11-16T04:46:39.795Z,1017.21
2017-11-16T04:47:05.905Z,1017.24
2017-11-16T04:47:32.028Z,1017.22
2017-11-16T04:47:58.153Z,1017.23
2017-11-16T04:48:24.293Z,1017.24
2017-11-16T04:48:50.413Z,1017.21
2017-11-16T04:49:16.540Z,1017.23
2017-11-16T04:49:42.664Z,1017.24
2017-11-16T04:50:08.781Z,1017.24
2017-11-16T04:50:34.910Z,1017.23
2017-11-16T04:51:01.036Z,1017.21
2017-11-16T04:51:27.152Z,1017.25
2017-11-16T04:51:53.282Z,1017.21
2017-11-16T04:52:19.397Z,1017.22
2017-11-16T04:52:45.526Z,1017.25
2017-11-16T04:53:11.641Z,1017.22
2017-11-16T04:53:37.762Z,1017.2
2017-11-16T04:54:03.883Z,1017.2
2017-11-16T04:54:30.003Z,1017.26
2017-11-16T04:54:56.121Z,1017.21
2017-11-16T04:55:22.261Z,1017.26
2017-11-16T04:55:48.401Z,1017.19
2017-11-16T04:56:14.535Z,1017.24
2017-11-16T04:56:40.659Z,1017.23
2017-11-16T04:57:06.775Z,1017.26
2017-11-16T04:57:32.920Z,1017.28
2017-11-16T04:57:59.022Z,1017.26
2017-11-16T04:58:25.136Z,1017.25
2017-11-16T04:58:51.267Z,1017.26
2017-11-16T04:59:17.391Z,1017.25
2017-11-16T04:59:43.505Z,1017.25
2017-11-16T05:00:09.619Z,1017.25
2017-11-16T05:00:35.740Z,1017.17
2017-11-16T05:01:01.862Z,1017.18
2017-11-16T05:01:27.984Z,1017.17
2017-11-16T05:01:54.116Z,1017.17
2017-11-16T05:02:20.228Z,1017.2
2017-11-16T05:02:46.348Z,1017.17
2017-11-16T05:03:12.472Z,1017.18
2017-11-16T05:03:38.596Z,1017.17
2017-11-16T05:04:04.718Z,1017.16
2017-11-16T05:04:30.831Z,1017.17
2017-11-16T05:04:56.957Z,1017.17
2017-11-16T05:05:23.081Z,1017.19
2017-11-16T05:05:49.203Z,1017.2
2017-11-16T05:06:15.321Z,1017.17
2017-11-16T05:06:41.445Z,1017.14
2017-11-16T05:07:07.569Z,1017.25
2017-11-16T05:07:33.686Z,1017.16
2017-11-16T05:07:59.804Z,1017.21
2017-11-16T05:08:25.932Z,1017.17
2017-11-16T05:08:52.087Z,1017.13
2017-11-16T05:09:18.178Z,1017.16
2017-11-16T05:09:44.298Z,1017.15
2017-11-16T05:10:10.425Z,1017.16
2017-11-16T05:10:36.541Z,1017.15
2017-11-16T05:11:02.668Z,1017.17
2017-11-16T05:11:28.785Z,1017.22
2017-11-16T05:11:54.912Z,1017.19
2017-11-16T05:12:21.034Z,1017.19
2017-11-16T05:12:47.153Z,1017.2
2017-11-16T05:13:13.301Z,1017.2
2017-11-16T05:13:39.438Z,1017.23
2017-11-16T05:14:05.557Z,1017.22
2017-11-16T05:14:31.685Z,1017.25
2017-11-16T05:14:57.799Z,1017.2
2017-11-16T05:15:23.923Z,1017.23
2017-11-16T05:15:50.044Z,1017.19
2017-11-16T05:16:16.166Z,1017.17
2017-11-16T05:16:42.293Z,1017.21
2017-11-16T05:17:08.411Z,1017.19